Time;durP1;ratioP1;P1;durP2;ratioP2;P2;SDS_P1;SDS_P2;PMS_P1;PMS_P2;Temp;Humidity;BMP_temperature;BMP_pressure;BME280_temperature;BME280_humidity;BME280_pressure;Samples;Min_cycle;Max_cycle;Signal;HPM_P1;HPM_P2
2022/04/25 00:01:47;;;;;;;7.80;7.10;;;;;;;6.78;100.00;100718.37;1685291;83;21554;-76
2022/04/25 00:04:15;;;;;;;7.15;6.45;;;;;;;6.61;100.00;100724.05;1685567;83;21132;-76
2022/04/25 00:06:43;;;;;;;7.33;6.67;;;;;;;6.44;100.00;100732.77;1685738;83;21061;-80
2022/04/25 00:09:10;;;;;;;7.42;6.83;;;;;;;6.30;100.00;100727.06;1685445;83;21010;-78
2022/04/25 00:11:39;;;;;;;7.92;7.12;;;;;;;6.25;100.00;100733.44;1685313;83;21049;-79
2022/04/25 00:14:08;;;;;;;7.28;6.62;;;;;;;6.24;100.00;100731.29;1685583;83;21539;-77
2022/04/25 00:16:35;;;;;;;7.00;6.40;;;;;;;6.27;100.00;100732.42;1685928;85;21085;-76
2022/04/25 00:19:04;;;;;;;6.80;6.20;;;;;;;6.27;100.00;100730.28;1685696;85;21482;-79
2022/04/25 00:21:32;;;;;;;7.72;7.12;;;;;;;6.27;100.00;100729.84;1685554;83;21549;-81
2022/04/25 00:24:00;;;;;;;7.72;7.12;;;;;;;6.25;100.00;100723.91;1685182;85;21065;-77
2022/04/25 00:26:29;;;;;;;7.78;7.17;;;;;;;6.23;100.00;100723.16;1685272;83;21025;-76
2022/04/25 00:28:58;;;;;;;7.67;7.08;;;;;;;6.23;100.00;100723.16;1685610;83;21061;-79
2022/04/25 00:31:26;;;;;;;7.22;6.62;;;;;;;6.23;100.00;100717.98;1685651;85;21072;-77
2022/04/25 00:33:54;;;;;;;8.53;7.67;;;;;;;6.24;100.00;100723.53;1685739;85;21431;-76
2022/04/25 00:36:23;;;;;;;12.40;9.80;;;;;;;6.30;100.00;100736.12;1685594;83;21591;-78
2022/04/25 00:38:52;;;;;;;16.50;11.50;;;;;;;6.35;100.00;100739.74;1685303;83;20946;-78
2022/04/25 00:41:19;;;;;;;17.50;11.33;;;;;;;6.39;100.00;100733.94;1670375;85;21011;-79
2022/04/25 00:43:47;;;;;;;14.63;11.40;;;;;;;6.38;100.00;100738.73;1670522;85;21111;-79
2022/04/25 00:46:23;;;;;;;12.98;10.45;;;;;;;6.34;100.00;100739.84;1670597;85;21074;-78
2022/04/25 00:48:53;;;;;;;14.73;10.53;;;;;;;6.30;100.00;100736.12;1670633;85;21821;-79
2022/04/25 00:51:22;;;;;;;14.95;10.43;;;;;;;6.25;100.00;100735.55;1668378;85;21004;-78
2022/04/25 00:53:49;;;;;;;10.93;9.83;;;;;;;6.21;100.00;100735.80;1712560;83;21034;-79
2022/04/25 00:56:17;;;;;;;12.60;10.60;;;;;;;6.17;100.00;100732.55;1657125;85;21385;-78
2022/04/25 00:58:49;;;;;;;12.75;10.70;;;;;;;6.18;100.00;100738.54;1712632;82;21030;-78
2022/04/25 01:01:16;;;;;;;15.88;11.78;;;;;;;6.22;100.00;100740.88;1712470;83;21136;-78
2022/04/25 01:03:45;;;;;;;13.08;11.65;;;;;;;6.27;100.00;100739.33;1712436;82;21006;-79
2022/04/25 01:06:13;;;;;;;12.55;10.78;;;;;;;6.28;100.00;100734.09;1713076;83;21054;-79
2022/04/25 01:08:41;;;;;;;13.10;11.75;;;;;;;6.32;100.00;100728.30;1712850;82;21043;-80
2022/04/25 01:11:09;;;;;;;13.55;12.15;;;;;;;6.37;100.00;100727.56;1702500;83;20995;-79
2022/04/25 01:13:36;;;;;;;13.00;11.60;;;;;;;6.45;100.00;100716.77;1712631;82;21552;-81
2022/04/25 01:16:04;;;;;;;15.05;11.78;;;;;;;6.52;100.00;100720.72;1712731;82;21098;-80
2022/04/25 01:18:32;;;;;;;14.00;11.80;;;;;;;6.59;100.00;100717.30;1712701;83;22181;-78
2022/04/25 01:21:00;;;;;;;14.23;11.10;;;;;;;6.65;100.00;100718.23;1712753;82;21037;-79
2022/04/25 01:29:03;;;;;;;15.43;13.13;;;;;;;6.70;100.00;100708.92;1664438;84;21063;-80
2022/04/25 01:31:32;;;;;;;16.97;13.80;;;;;;;6.74;100.00;100713.83;1632405;86;21151;-85
2022/04/25 01:34:00;;;;;;;16.77;13.80;;;;;;;6.77;100.00;100712.38;1648853;85;21586;-84
2022/04/25 01:36:27;;;;;;;15.78;13.13;;;;;;;6.80;100.00;100710.06;1712244;83;21153;-79
2022/04/25 01:38:56;;;;;;;14.47;12.75;;;;;;;6.78;100.00;100709.31;1712079;83;21031;-80
2022/04/25 01:41:23;;;;;;;14.63;11.63;;;;;;;6.73;100.00;100712.16;1713019;82;21011;-79
2022/04/25 01:43:50;;;;;;;14.63;12.70;;;;;;;6.61;100.00;100705.94;1712843;83;21089;-78
2022/04/25 01:46:19;;;;;;;14.10;11.97;;;;;;;6.57;100.00;100705.75;1712534;82;21583;-79
2022/04/25 01:48:46;;;;;;;15.40;12.45;;;;;;;6.56;100.00;100709.26;1712723;82;21031;-79
2022/04/25 01:51:13;;;;;;;14.00;11.95;;;;;;;6.54;100.00;100709.80;1714953;83;21137;-78
2022/04/25 01:53:41;;;;;;;14.43;11.97;;;;;;;6.52;100.00;100706.48;1725025;82;21117;-78
2022/04/25 01:56:10;;;;;;;13.08;11.80;;;;;;;6.51;100.00;100714.31;1725733;81;21058;-79
2022/04/25 01:58:38;;;;;;;17.23;12.47;;;;;;;6.51;100.00;100709.14;1725589;83;21071;-79
2022/04/25 02:01:08;;;;;;;13.85;10.90;;;;;;;6.54;100.00;100713.67;1725539;83;21062;-78
2022/04/25 02:03:36;;;;;;;15.48;10.88;;;;;;;6.55;100.00;100711.47;1725891;83;21817;-79
2022/04/25 02:06:04;;;;;;;11.55;10.35;;;;;;;6.54;100.00;100717.56;1725791;81;21090;-79
2022/04/25 02:08:32;;;;;;;11.68;10.50;;;;;;;6.52;100.00;100716.83;1725722;81;21105;-78
2022/04/25 02:13:45;;;;;;;13.10;11.70;;;;;;;6.45;100.00;100712.45;1725605;81;21057;-79
2022/04/25 02:16:15;;;;;;;17.55;14.15;;;;;;;6.31;100.00;100715.80;1725712;82;21062;-78
2022/04/25 02:18:42;;;;;;;17.10;14.07;;;;;;;6.17;100.00;100710.57;1725485;83;21062;-78
2022/04/25 02:21:10;;;;;;;16.87;14.53;;;;;;;6.05;100.00;100715.13;1725089;83;21042;-79
2022/04/25 02:23:39;;;;;;;14.60;12.98;;;;;;;5.97;100.00;100721.50;1725057;83;21050;-78
2022/04/25 02:26:08;;;;;;;16.42;13.15;;;;;;;5.94;100.00;100722.97;1725742;83;21062;-80
2022/04/25 02:28:38;;;;;;;14.25;12.78;;;;;;;5.99;100.00;100718.41;1725376;83;21198;-83
2022/04/25 02:31:07;;;;;;;14.38;12.98;;;;;;;6.02;100.00;100725.63;1725322;83;21359;-81
2022/04/25 02:33:36;;;;;;;13.65;12.35;;;;;;;6.01;100.00;100727.36;1725257;81;21316;-79
2022/04/25 02:36:07;;;;;;;14.18;12.78;;;;;;;5.98;100.00;100733.50;1725535;81;21081;-79
2022/04/25 02:38:36;;;;;;;13.98;12.55;;;;;;;5.95;100.00;100734.12;1725440;81;21085;-78
2022/04/25 02:41:05;;;;;;;12.73;11.53;;;;;;;5.95;100.00;100733.69;1725534;82;21054;-79
2022/04/25 02:43:43;;;;;;;12.23;11.05;;;;;;;5.95;100.00;100734.98;1725234;83;21057;-79
2022/04/25 02:46:15;;;;;;;13.68;12.28;;;;;;;5.96;100.00;100737.95;1725409;83;21045;-79
2022/04/25 02:48:45;;;;;;;13.40;11.83;;;;;;;6.00;100.00;100736.06;1726085;83;21085;-79
2022/04/25 02:51:15;;;;;;;13.70;11.60;;;;;;;6.06;100.00;100740.89;1725816;82;21085;-78
2022/04/25 02:53:43;;;;;;;13.20;11.93;;;;;;;6.09;100.00;100742.00;1725626;83;21143;-78
2022/04/25 02:56:11;;;;;;;13.32;12.03;;;;;;;6.13;100.00;100741.38;1725802;83;21007;-78
2022/04/25 02:58:39;;;;;;;12.80;11.48;;;;;;;6.17;100.00;100743.36;1725494;81;21093;-78
2022/04/25 03:01:08;;;;;;;12.82;11.53;;;;;;;6.20;100.00;100742.73;1725775;82;21601;-78
2022/04/25 03:03:38;;;;;;;14.20;12.82;;;;;;;6.24;100.00;100744.69;1725628;81;21030;-80
2022/04/25 03:06:09;;;;;;;12.55;11.28;;;;;;;6.27;100.00;100741.48;1725780;83;21266;-77
2022/04/25 03:08:38;;;;;;;13.35;11.95;;;;;;;6.30;100.00;100742.58;1708828;83;21073;-80
2022/04/25 03:11:09;;;;;;;14.35;12.90;;;;;;;6.33;100.00;100744.16;1725372;82;21484;-80
2022/04/25 03:13:38;;;;;;;12.70;11.45;;;;;;;6.37;100.00;100748.73;1725838;83;21145;-78
2022/04/25 03:16:07;;;;;;;12.45;11.28;;;;;;;6.37;100.00;100750.03;1725672;81;21136;-80
2022/04/25 03:18:36;;;;;;;11.97;10.88;;;;;;;6.34;100.00;100754.89;1725722;82;21086;-78
2022/04/25 03:21:06;;;;;;;13.35;12.10;;;;;;;6.30;100.00;100760.69;1725365;82;21709;-83
2022/04/25 03:23:40;;;;;;;13.43;12.13;;;;;;;6.30;100.00;100763.27;1725771;83;21021;-79
2022/04/25 03:26:06;;;;;;;13.08;11.90;;;;;;;6.31;100.00;100759.77;1724767;81;21638;-79
2022/04/25 03:28:34;;;;;;;12.55;11.35;;;;;;;6.31;100.00;100757.19;1725532;83;21044;-79
2022/04/25 03:31:07;;;;;;;12.30;11.12;;;;;;;6.31;100.00;100754.59;1725487;83;21213;-79
2022/04/25 03:33:36;;;;;;;13.98;12.58;;;;;;;6.34;100.00;100763.12;1724088;83;21022;-78
2022/04/25 03:36:05;;;;;;;13.22;11.93;;;;;;;6.36;100.00;100762.58;1725868;83;21511;-80
2022/04/25 03:38:32;;;;;;;12.93;11.70;;;;;;;6.33;100.00;100758.38;1725619;81;21053;-77
2022/04/25 03:41:00;;;;;;;16.55;14.95;;;;;;;6.34;100.00;100750.19;1725735;81;21030;-78
2022/04/25 03:43:28;;;;;;;15.90;14.30;;;;;;;6.35;100.00;100751.86;1725184;82;21496;-82
2022/04/25 03:45:57;;;;;;;14.13;12.73;;;;;;;6.30;100.00;100761.16;1725707;82;21618;-82
2022/04/25 03:48:24;;;;;;;14.35;12.95;;;;;;;6.29;100.00;100766.77;1725227;81;21764;-81
2022/04/25 03:50:51;;;;;;;13.78;12.47;;;;;;;6.33;100.00;100759.68;1725977;83;21037;-81
2022/04/25 03:53:18;;;;;;;13.10;11.80;;;;;;;6.38;100.00;100760.72;1716322;82;21584;-81
2022/04/25 03:58:30;;;;;;;13.10;11.90;;;;;;;6.50;100.00;100769.55;1680992;82;20995;-79
2022/04/25 04:00:58;;;;;;;12.58;11.38;;;;;;;6.57;100.00;100769.14;1712516;82;21086;-78
2022/04/25 04:03:26;;;;;;;11.80;10.70;;;;;;;6.63;100.00;100775.27;1712826;82;21623;-85
2022/04/25 04:05:54;;;;;;;11.90;10.80;;;;;;;6.68;100.00;100779.36;1712608;83;21081;-84
2022/04/25 04:08:21;;;;;;;11.22;10.13;;;;;;;6.76;100.00;100778.00;1712554;82;21251;-79
2022/04/25 04:10:52;;;;;;;12.25;11.05;;;;;;;6.82;100.00;100772.94;1712491;82;21038;-80
2022/04/25 04:13:20;;;;;;;12.30;11.10;;;;;;;6.89;100.00;100776.02;1712837;83;21098;-79
2022/04/25 04:15:47;;;;;;;11.68;10.45;;;;;;;6.94;100.00;100775.29;1712330;82;21003;-79
2022/04/25 04:18:16;;;;;;;13.70;12.30;;;;;;;7.02;100.00;100772.24;1712325;82;21030;-79
2022/04/25 04:20:44;;;;;;;14.10;12.73;;;;;;;7.09;100.00;100765.81;1712541;82;21131;-78
2022/04/25 04:23:11;;;;;;;13.60;12.30;;;;;;;7.15;100.00;100765.89;1712635;83;21050;-78
2022/04/25 04:25:40;;;;;;;14.07;12.73;;;;;;;7.17;100.00;100770.05;1712489;82;21532;-81
2022/04/25 04:28:09;;;;;;;14.68;13.28;;;;;;;7.20;100.00;100769.06;1712660;82;21509;-78
2022/04/25 04:30:37;;;;;;;18.60;14.87;;;;;;;7.20;100.00;100771.66;1712703;83;21547;-77
2022/04/25 04:33:05;;;;;;;17.77;15.80;;;;;;;7.23;100.00;100770.16;1712651;82;21235;-78
2022/04/25 04:38:20;;;;;;;17.05;15.35;;;;;;;7.23;100.00;100771.02;1712796;82;21515;-78
2022/04/25 04:40:47;;;;;;;17.12;15.45;;;;;;;7.31;100.00;100774.91;1712419;82;21056;-79
2022/04/25 04:43:16;;;;;;;16.65;14.95;;;;;;;7.40;100.00;100776.48;1712532;83;20994;-76
2022/04/25 04:45:44;;;;;;;18.07;16.20;;;;;;;7.50;100.00;100775.47;1712815;82;21954;-78
2022/04/25 04:48:12;;;;;;;16.90;15.20;;;;;;;7.60;100.00;100776.22;1712466;82;21622;-78
2022/04/25 04:50:41;;;;;;;15.83;14.20;;;;;;;7.70;100.00;100779.94;1712612;82;21666;-84
2022/04/25 04:53:08;;;;;;;17.15;15.38;;;;;;;7.79;100.00;100779.83;1718673;81;21022;-84
2022/04/25 04:55:36;;;;;;;15.18;13.25;;;;;;;7.87;100.00;100780.19;1725648;81;21030;-79
2022/04/25 04:58:04;;;;;;;16.60;14.70;;;;;;;7.94;100.00;100778.06;1725192;83;21258;-79
2022/04/25 05:00:33;;;;;;;17.65;15.85;;;;;;;8.02;100.00;100776.66;1725204;82;21051;-76
2022/04/25 05:03:01;;;;;;;17.12;15.43;;;;;;;8.12;100.00;100771.75;1725404;83;20958;-79
2022/04/25 05:05:28;;;;;;;14.73;13.22;;;;;;;8.20;100.00;100768.22;1725598;83;21117;-78
2022/04/25 05:07:56;;;;;;;16.87;15.13;;;;;;;8.27;100.00;100772.53;1725384;83;21081;-78
2022/04/25 05:10:25;;;;;;;17.12;15.40;;;;;;;8.38;100.00;100778.34;1725397;83;21150;-78
2022/04/25 05:12:58;;;;;;;16.65;15.00;;;;;;;8.49;100.00;100775.94;1725594;83;21061;-77
2022/04/25 05:15:23;;;;;;;17.43;15.63;;;;;;;8.58;100.00;100769.31;1725203;82;21112;-78
2022/04/25 05:17:55;;;;;;;18.23;16.35;;;;;;;8.71;100.00;100770.66;1725004;83;21081;-78
2022/04/25 05:20:24;;;;;;;17.20;15.38;;;;;;;8.83;100.00;100772.47;1725201;83;21029;-78
2022/04/25 05:22:53;;;;;;;16.55;14.95;;;;;;;8.93;100.00;100774.47;1725804;82;21069;-83
2022/04/25 05:25:25;;;;;;;18.15;15.28;;;;;;;9.07;100.00;100778.73;1725130;83;21073;-83
2022/04/25 05:27:55;;;;;;;17.32;15.53;;;;;;;9.22;100.00;100778.19;1725311;83;21895;-78
2022/04/25 05:30:25;;;;;;;17.35;15.55;;;;;;;9.40;100.00;100779.56;1725727;83;21532;-79
2022/04/25 05:32:57;;;;;;;17.62;15.40;;;;;;;9.56;100.00;100787.62;1725180;82;21097;-78
2022/04/25 05:35:28;;;;;;;17.85;15.35;;;;;;;9.74;100.00;100785.03;1725518;81;21131;-78
2022/04/25 05:37:58;;;;;;;19.52;15.85;;;;;;;9.90;100.00;100786.57;1708794;83;40071;-79
2022/04/25 05:40:27;;;;;;;18.20;14.55;;;;;;;10.07;100.00;100781.51;1725081;82;21005;-77
2022/04/25 05:42:59;;;;;;;15.20;13.70;;;;;;;10.24;100.00;100781.61;1724646;83;21097;-79
2022/04/25 05:45:26;;;;;;;18.15;13.85;;;;;;;10.41;100.00;100779.15;1725335;81;21449;-78
2022/04/25 05:48:00;;;;;;;16.12;13.53;;;;;;;10.59;100.00;100778.28;1725688;83;21095;-80
2022/04/25 05:53:16;;;;;;;18.92;13.53;;;;;;;10.95;100.00;100770.00;1720985;83;21015;-78
2022/04/25 05:55:45;;;;;;;15.05;12.68;;;;;;;11.22;100.00;100768.06;1712503;82;21035;-78
2022/04/25 05:58:14;;;;;;;15.68;12.68;;;;;;;11.39;100.00;100775.41;1712449;82;21498;-85
2022/04/25 06:00:41;;;;;;;14.63;12.60;;;;;;;11.55;100.00;100767.27;1715394;81;21742;-84
2022/04/25 06:03:08;;;;;;;13.45;10.28;;;;;;;11.71;100.00;100766.89;1761928;81;21019;-84
2022/04/25 06:05:37;;;;;;;13.15;11.83;;;;;;;11.90;100.00;100766.28;1713779;81;21058;-83
2022/04/25 06:08:05;;;;;;;13.78;11.43;;;;;;;12.10;100.00;100768.66;1750225;81;21657;-79
2022/04/25 06:10:33;;;;;;;13.32;10.70;;;;;;;12.28;100.00;100775.53;1761680;81;21864;-78
2022/04/25 06:13:02;;;;;;;12.63;10.63;;;;;;;12.49;100.00;100771.31;1761646;81;21054;-79
2022/04/25 06:15:31;;;;;;;12.53;10.55;;;;;;;12.70;100.00;100767.44;1758997;81;21622;-78
2022/04/25 06:17:58;;;;;;;11.20;10.00;;;;;;;12.85;100.00;100772.71;1761709;80;21010;-78
2022/04/25 06:20:30;;;;;;;10.72;9.38;;;;;;;13.04;100.00;100767.25;1761892;81;21034;-79
2022/04/25 06:23:02;;;;;;;10.27;9.23;;;;;;;13.19;100.00;100762.04;1757107;80;21313;-78
2022/04/25 06:25:31;;;;;;;10.35;9.15;;;;;;;13.36;100.00;100758.48;1748027;81;21681;-79
2022/04/25 06:28:00;;;;;;;12.18;8.63;;;;;;;13.53;100.00;100761.84;1684797;83;21122;-83
2022/04/25 06:30:30;;;;;;;11.88;8.58;;;;;;;13.71;100.00;100749.45;1704476;84;21092;-80
2022/04/25 06:33:00;;;;;;;11.15;8.30;;;;;;;13.88;100.00;100742.27;1675756;84;21062;-81
2022/04/25 06:35:29;;;;;;;8.23;7.42;;;;;;;14.03;100.00;100737.96;1702374;84;21476;-80
2022/04/25 06:37:56;;;;;;;8.60;7.20;;;;;;;14.18;100.00;100737.92;1705049;84;21215;-78
2022/04/25 06:40:26;;;;;;;9.88;7.70;;;;;;;14.33;100.00;100730.96;1704467;84;21685;-80
2022/04/25 06:42:55;;;;;;;9.20;6.72;;;;;;;14.44;100.00;100733.92;1680529;83;21127;-75
2022/04/25 06:45:27;;;;;;;8.55;6.42;;;;;;;14.59;100.00;100732.55;1683782;84;21118;-76
2022/04/25 06:47:57;;;;;;;6.65;5.65;;;;;;;14.75;100.00;100733.80;1682349;84;21062;-86
2022/04/25 06:50:26;;;;;;;6.05;5.50;;;;;;;14.87;100.00;100733.16;1690640;83;21602;-82
2022/04/25 06:52:54;;;;;;;5.70;5.20;;;;;;;15.01;100.00;100731.91;1704015;83;21043;-79
2022/04/25 06:55:24;;;;;;;6.80;5.15;;;;;;;15.13;100.00;100731.59;1688448;84;21058;-77
2022/04/25 06:57:54;;;;;;;9.10;5.20;;;;;;;15.26;100.00;100727.84;1707042;82;21027;-78
2022/04/25 07:00:33;;;;;;;6.55;5.80;;;;;;;15.39;100.00;100734.06;1681092;83;21082;-78
2022/04/25 07:03:03;;;;;;;5.12;4.72;;;;;;;15.49;100.00;100722.23;1679523;84;21617;-78
2022/04/25 07:05:31;;;;;;;6.25;5.58;;;;;;;15.56;100.00;100722.80;1688850;83;21060;-78
2022/04/25 07:07:59;;;;;;;5.45;4.95;;;;;;;15.67;100.00;100723.59;1689669;83;21027;-78
2022/04/25 07:10:27;;;;;;;6.65;5.35;;;;;;;15.75;100.00;100717.12;1693403;84;21098;-79
2022/04/25 07:12:56;;;;;;;7.55;5.80;;;;;;;15.84;100.00;100716.75;1686081;84;21089;-79
2022/04/25 07:15:24;;;;;;;5.80;5.28;;;;;;;15.94;100.00;100718.84;1667968;85;21235;-79
2022/04/25 07:17:59;;;;;;;6.17;5.08;;;;;;;16.09;100.00;100719.16;1660374;84;20942;-79
2022/04/25 07:20:27;;;;;;;6.15;5.30;;;;;;;16.19;100.00;100719.09;1734254;81;21050;-79
2022/04/25 07:28:51;;;;;;;6.55;5.05;;;;;;;16.56;100.00;100713.67;1744863;82;21631;-78
2022/04/25 07:31:25;;;;;;;5.30;4.72;;;;;;;16.71;100.00;100711.30;1729791;81;21034;-83
2022/04/25 07:33:56;;;;;;;4.80;4.30;;;;;;;16.83;100.00;100711.06;1758152;79;21606;-79
2022/04/25 07:36:27;;;;;;;6.45;5.10;;;;;;;16.94;100.00;100708.22;1750877;81;21068;-79
2022/04/25 07:38:56;;;;;;;5.92;4.40;;;;;;;17.07;100.00;100706.45;1744799;81;21092;-79
2022/04/25 07:41:27;;;;;;;5.03;4.62;;;;;;;17.16;100.00;100710.79;1740834;81;21588;-79
2022/04/25 07:43:58;;;;;;;5.72;5.12;;;;;;;17.25;100.00;100706.41;1742469;81;21070;-80
2022/04/25 07:46:28;;;;;;;6.65;5.50;;;;;;;17.34;100.00;100710.73;1753666;81;22162;-80
2022/04/25 07:48:56;;;;;;;4.95;4.50;;;;;;;17.43;100.00;100701.53;1749529;81;21031;-79
2022/04/25 07:51:23;;;;;;;4.92;4.53;;;;;;;17.50;100.00;100705.20;1758430;81;21018;-79
2022/04/25 07:53:52;;;;;;;5.42;4.47;;;;;;;17.56;100.00;100699.30;1736132;80;21287;-78
2022/04/25 07:56:19;;;;;;;5.72;4.87;;;;;;;17.63;100.00;100691.56;1714011;82;21867;-79
2022/04/25 07:58:48;;;;;;;5.45;4.53;;;;;;;17.70;100.00;100692.61;1703064;82;21397;-79
2022/04/25 08:01:17;;;;;;;4.97;4.47;;;;;;;17.75;100.00;100690.78;1715039;82;20994;-78
2022/04/25 08:03:45;;;;;;;4.97;4.33;;;;;;;17.79;100.00;100689.48;1714416;83;21057;-78
2022/04/25 08:06:12;;;;;;;5.83;4.67;;;;;;;17.89;100.00;100689.34;1705473;83;21059;-79
2022/04/25 08:08:42;;;;;;;6.17;4.60;;;;;;;17.97;100.00;100688.91;1713754;83;21053;-79
2022/04/25 08:11:11;;;;;;;4.78;4.25;;;;;;;18.07;100.00;100693.17;1711843;83;21529;-79
2022/04/25 08:19:13;;;;;;;5.10;4.40;;;;;;;18.29;100.00;100678.55;1693451;83;21271;-79
2022/04/25 08:21:43;;;;;;;5.60;4.90;;;;;;;18.37;100.00;100676.41;1708581;83;21060;-78
2022/04/25 08:24:14;;;;;;;4.72;4.22;;;;;;;18.41;100.00;100673.28;1710452;83;21160;-79
2022/04/25 08:26:43;;;;;;;4.80;4.30;;;;;;;18.46;100.00;100664.88;1711605;82;21029;-79
2022/04/25 08:29:10;;;;;;;4.87;4.10;;;;;;;18.51;100.00;100667.83;1696100;82;21570;-79
2022/04/25 08:31:38;;;;;;;7.80;6.55;;;;;;;18.62;100.00;100657.94;1661455;85;21316;-79
2022/04/25 08:34:09;;;;;;;6.55;5.50;;;;;;;18.75;100.00;100660.37;1704838;82;21057;-79
2022/04/25 08:36:37;;;;;;;6.95;4.92;;;;;;;18.87;100.00;100660.83;1703630;82;21087;-79
2022/04/25 08:39:05;;;;;;;5.10;4.47;;;;;;;18.93;100.00;100651.45;1710538;83;21631;-79
2022/04/25 08:41:49;;;;;;;4.90;4.50;;;;;;;18.99;100.00;100651.28;1706588;82;21093;-79
2022/04/25 08:44:19;;;;;;;4.58;4.05;;;;;;;19.05;100.00;100653.23;1675055;83;21283;-80
2022/04/25 08:46:54;;;;;;;4.72;4.10;;;;;;;19.11;100.00;100657.02;1711726;82;20994;-78
2022/04/25 08:49:23;;;;;;;5.72;4.40;;;;;;;19.20;100.00;100651.52;1701847;82;21160;-83
2022/04/25 08:51:58;;;;;;;6.08;4.72;;;;;;;19.30;100.00;100647.37;1707019;83;21079;-84
2022/04/25 08:54:30;;;;;;;6.22;5.10;;;;;;;19.40;100.00;100652.44;1728291;80;21065;-79
2022/04/25 08:57:05;;;;;;;5.00;4.47;;;;;;;19.45;100.00;100646.13;1740667;80;21616;-79
2022/04/25 08:59:34;;;;;;;9.10;4.70;;;;;;;19.53;100.00;100642.12;1753985;81;21083;-83
2022/04/25 09:02:07;;;;;;;5.70;4.47;;;;;;;19.59;100.00;100630.56;1748242;80;21237;-80
2022/04/25 09:04:37;;;;;;;5.12;4.62;;;;;;;19.66;100.00;100628.36;1758191;81;20995;-78
2022/04/25 09:07:06;;;;;;;9.05;4.83;;;;;;;19.68;100.00;100623.73;1746279;81;21050;-78
2022/04/25 09:09:34;;;;;;;6.30;4.22;;;;;;;19.75;100.00;100619.06;1763381;80;21135;-78
2022/04/25 09:12:14;;;;;;;4.35;3.95;;;;;;;19.81;100.00;100619.19;1745004;81;21088;-80
2022/04/25 09:14:45;;;;;;;4.95;4.33;;;;;;;19.91;100.00;100616.84;1726975;81;21068;-78
2022/04/25 09:17:13;;;;;;;5.08;4.58;;;;;;;20.05;100.00;100620.03;1750688;81;21625;-80
2022/04/25 09:19:41;;;;;;;4.95;4.45;;;;;;;20.13;100.00;100609.39;1746659;81;21061;-79
2022/04/25 09:22:12;;;;;;;4.53;4.00;;;;;;;20.18;100.00;100604.38;1744180;81;21028;-78
2022/04/25 09:24:46;;;;;;;4.60;4.20;;;;;;;20.22;100.00;100602.20;1763578;80;21089;-78
2022/04/25 09:27:23;;;;;;;4.85;4.40;;;;;;;20.27;100.00;100594.53;1747691;81;21488;-79
2022/04/25 09:29:51;;;;;;;4.53;4.05;;;;;;;20.37;100.00;100598.75;1753951;81;21006;-78
2022/04/25 09:32:25;;;;;;;4.22;3.92;;;;;;;20.48;100.00;100588.55;1700003;82;21161;-78
2022/04/25 09:35:00;;;;;;;7.83;4.03;;;;;;;20.56;100.00;100592.94;1658683;85;21973;-84
2022/04/25 09:37:46;;;;;;;6.47;3.85;;;;;;;20.63;100.00;100593.05;1705737;83;21096;-78
2022/04/25 09:40:21;;;;;;;5.55;4.00;;;;;;;20.71;100.00;100591.60;1687865;83;21081;-78
2022/04/25 09:43:11;;;;;;;5.17;3.87;;;;;;;20.80;100.00;100587.09;1671674;84;21072;-81
2022/04/25 09:45:42;;;;;;;6.72;4.12;;;;;;;20.88;100.00;100588.31;1703964;82;21038;-78
2022/04/25 09:48:16;;;;;;;3.95;3.52;;;;;;;20.97;100.00;100583.73;1743761;81;21953;-81
2022/04/25 09:51:03;;;;;;;4.35;3.72;;;;;;;21.05;100.00;100580.98;1763932;81;21085;-80
2022/04/25 09:53:53;;;;;;;6.72;4.17;;;;;;;21.13;100.00;100582.71;1746610;81;21550;-78
2022/04/25 09:56:24;;;;;;;4.28;3.40;;;;;;;21.18;94.47;100589.58;1747047;80;21114;-81
2022/04/25 09:59:02;;;;;;;3.45;3.15;;;;;;;21.18;86.73;100583.48;1751847;81;21033;-79
2022/04/25 10:01:34;;;;;;;3.72;2.95;;;;;;;21.17;76.20;100580.51;1745679;81;21157;-83
2022/04/25 10:04:02;;;;;;;6.40;3.62;;;;;;;21.16;84.29;100577.55;1745791;80;21571;-80
2022/04/25 10:06:35;;;;;;;5.70;3.33;;;;;;;21.22;82.59;100576.79;1737762;81;21132;-79
2022/04/25 10:09:06;;;;;;;3.70;3.27;;;;;;;21.33;94.39;100578.96;1741668;80;21967;-79
2022/04/25 10:11:39;;;;;;;4.12;3.10;;;;;;;21.46;93.09;100576.96;1749576;81;20981;-79
2022/04/25 10:14:08;;;;;;;3.65;3.37;;;;;;;21.54;88.59;100573.35;1755716;81;21935;-80
2022/04/25 10:16:37;;;;;;;3.42;2.85;;;;;;;21.59;88.67;100569.16;1756087;81;21128;-79
2022/04/25 10:19:08;;;;;;;3.30;2.95;;;;;;;21.61;77.66;100562.86;1738914;81;21099;-80
2022/04/25 10:21:37;;;;;;;3.30;2.90;;;;;;;21.57;81.77;100558.42;1694909;82;21094;-79
2022/04/25 10:24:07;;;;;;;4.87;3.40;;;;;;;21.57;82.17;100561.06;1696022;83;21015;-79
2022/04/25 10:26:36;;;;;;;3.83;3.37;;;;;;;21.60;77.37;100556.73;1748472;81;21149;-78
2022/04/25 10:29:13;;;;;;;3.15;2.85;;;;;;;21.57;71.76;100552.63;1742765;81;21065;-79
2022/04/25 10:31:44;;;;;;;3.60;3.30;;;;;;;21.42;73.23;100548.70;1761841;81;21038;-79
2022/04/25 10:34:14;;;;;;;4.03;3.37;;;;;;;21.40;74.41;100548.55;1747899;81;21036;-80
2022/04/25 10:36:46;;;;;;;4.97;3.12;;;;;;;21.42;80.16;100543.41;1763850;80;21097;-78
2022/04/25 10:39:23;;;;;;;4.30;3.90;;;;;;;21.49;83.06;100543.97;1744212;81;21034;-79
2022/04/25 10:44:51;;;;;;;4.67;3.25;;;;;;;21.69;85.65;100544.99;1764119;81;20999;-78
2022/04/25 10:47:28;;;;;;;5.60;3.58;;;;;;;21.81;81.31;100547.14;1744096;81;21116;-79
2022/04/25 10:50:02;;;;;;;5.03;3.83;;;;;;;21.89;82.31;100543.03;1745977;81;21043;-79
2022/04/25 10:52:42;;;;;;;3.62;3.27;;;;;;;22.01;85.66;100536.17;1766358;81;21378;-79
2022/04/25 10:55:33;;;;;;;3.42;3.10;;;;;;;22.09;85.16;100531.73;1749985;80;21114;-79
2022/04/25 10:58:09;;;;;;;4.40;2.67;;;;;;;22.14;78.27;100539.95;1762083;80;21037;-80
2022/04/25 11:00:45;;;;;;;3.17;2.85;;;;;;;22.17;69.56;100539.54;1750800;80;21638;-78
2022/04/25 11:03:29;;;;;;;3.10;2.80;;;;;;;22.21;64.66;100534.98;1695582;83;21128;-79
2022/04/25 11:06:06;;;;;;;5.20;2.67;;;;;;;22.30;62.44;100523.73;1724427;83;21029;-79
2022/04/25 11:08:36;;;;;;;3.83;2.72;;;;;;;22.37;57.42;100521.94;1723673;83;21606;-78
2022/04/25 11:11:17;;;;;;;4.87;3.22;;;;;;;22.35;56.91;100517.33;1718616;82;21539;-78
2022/04/25 11:14:01;;;;;;;2.95;2.60;;;;;;;22.40;59.62;100519.42;1706523;83;21484;-78
2022/04/25 11:16:28;;;;;;;4.72;3.33;;;;;;;22.45;61.50;100511.69;1691783;84;21078;-78
2022/04/25 11:19:16;;;;;;;5.10;3.20;;;;;;;22.54;64.68;100516.34;1720825;81;21573;-78
2022/04/25 11:21:49;;;;;;;3.50;3.08;;;;;;;22.65;62.73;100503.02;1707122;83;21071;-78
2022/04/25 11:24:33;;;;;;;3.70;3.37;;;;;;;22.75;66.91;100496.83;1704045;81;21460;-78
2022/04/25 11:27:04;;;;;;;7.72;2.58;;;;;;;22.80;68.85;100501.52;1685256;84;21027;-81
2022/04/25 11:29:45;;;;;;;4.30;2.80;;;;;;;22.84;65.04;100499.59;1720593;81;21109;-78
2022/04/25 11:32:30;;;;;;;4.72;3.10;;;;;;;22.85;62.98;100500.43;1707566;81;21607;-81
2022/04/25 11:35:01;;;;;;;3.77;3.08;;;;;;;22.85;60.05;100498.58;1703105;82;21660;-84
2022/04/25 11:37:32;;;;;;;4.67;3.45;;;;;;;22.91;58.07;100497.49;1711040;83;21076;-79
2022/04/25 11:40:07;;;;;;;4.20;2.90;;;;;;;22.96;59.24;100496.38;1676919;84;21075;-80
2022/04/25 11:42:37;;;;;;;3.50;3.08;;;;;;;22.96;61.73;100494.52;1719155;81;21051;-78
2022/04/25 11:45:06;;;;;;;5.08;3.22;;;;;;;23.00;63.06;100498.42;1717574;83;21103;-78
2022/04/25 11:47:35;;;;;;;5.05;3.60;;;;;;;23.02;61.44;100494.23;1678630;84;21152;-78
2022/04/25 11:50:14;;;;;;;3.02;2.83;;;;;;;23.03;61.31;100486.58;1707528;81;21084;-79
2022/04/25 11:52:51;;;;;;;4.28;3.33;;;;;;;23.08;62.50;100480.67;1691463;83;21643;-79
2022/04/25 11:55:32;;;;;;;5.60;2.90;;;;;;;23.09;60.95;100484.97;1697434;83;21141;-79
2022/04/25 11:57:59;;;;;;;2.65;2.45;;;;;;;23.09;61.83;100478.33;1686762;82;21059;-78
2022/04/25 12:00:27;;;;;;;4.35;3.25;;;;;;;23.12;58.31;100481.40;1710486;83;21011;-78